Flight Track Log - Related Links

Times and Time Zones

All times are in EDT time to prevent confusion due to time zone crossing. See the ASQ5007 flight status page for this flight to view local times or setup timezone preferences in your user account.

Time Position Orientation Groundspeed Altitude Reporting Facility
EDT Latitude Longitude Course Direction KTS MPH feet Rate Location/Type
Tue 01:52:05 PM 32.3839 -93.7678 139° Southeast 206 237 4,100  Level Fort Worth Center
Tue 01:53:31 PM 32.4081 -93.6583 75° East 263 303 7,500 2,178 Climbing Fort Worth Center
Tue 01:54:31 PM 32.4283 -93.5739 74° East 276 318 9,400 1,850 Climbing Fort Worth Center
Tue 01:55:31 PM 32.4561 -93.4619 74° East 299 344 11,200 1,700 Climbing Fort Worth Center
Tue 01:56:31 PM 32.4822 -93.3600 73° East 340 391 12,800 1,850 Climbing Fort Worth Center
Tue 01:57:31 PM 32.5156 -93.2328 73° East 359 413 14,900 1,800 Climbing Fort Worth Center
Tue 01:58:31 PM 32.5433 -93.1256 73° East 372 428 16,400 1,450 Climbing Fort Worth Center
Tue 01:59:31 PM 32.5708 -93.0158 73° East 377 434 17,800 1,450 Climbing Fort Worth Center
Tue 02:00:31 PM 32.6097 -92.8758 72° East 391 450 19,300 1,650 Climbing Fort Worth Center
Tue 02:01:31 PM 32.6481 -92.7308 73° East 402 463 21,100 1,650 Climbing Fort Worth Center
Tue 02:02:31 PM 32.6789 -92.6058 74° East 402 463 22,600 1,400 Climbing Fort Worth Center
Tue 02:03:31 PM 32.6883 -92.4744 85° East 402 463 23,900 1,050 Climbing Fort Worth Center
Tue 02:04:31 PM 32.6808 -92.3367 94° East 396 456 24,700 899 Climbing Fort Worth Center
Tue 02:06:58 PM 32.6531 -91.9933 95° East 435 501 27,000 725 Climbing Memphis Center
Tue 02:07:58 PM 32.6381 -91.8450 97° East 440 506 27,200 550 Climbing Memphis Center
Tue 02:08:58 PM 32.6272 -91.6967 95° East 445 512 28,100 850 Climbing Memphis Center
Tue 02:09:58 PM 32.6203 -91.5461 93° East 451 519 28,900 450 Climbing Memphis Center
Tue 02:10:58 PM 32.6072 -91.3981 96° East 451 519 29,000 50 Climbing Memphis Center
Tue 02:11:58 PM 32.5936 -91.2425 96° East 459 528 29,000  Level Memphis Center
Tue 02:12:58 PM 32.5842 -91.0969 94° East 459 528 29,000  Level Memphis Center
Tue 02:13:58 PM 32.5703 -90.9514 96° East 452 520 29,000  Level Memphis Center
Tue 02:14:58 PM 32.5606 -90.8083 95° East 442 509 29,000  Level Memphis Center
Tue 02:15:58 PM 32.5506 -90.6653 95° East 442 509 29,000  Level Memphis Center
Tue 02:16:58 PM 32.5361 -90.5200 97° East 442 509 29,000  Level Memphis Center
Tue 02:17:58 PM 32.5236 -90.3819 96° East 442 509 29,000  Level Memphis Center
Tue 02:18:58 PM 32.5111 -90.2392 96° East 442 509 29,000  Level Memphis Center
Tue 02:19:58 PM 32.5006 -90.0961 95° East 437 503 29,000  Level Memphis Center
Tue 02:20:58 PM 32.4897 -89.9681 96° East 437 503 29,000  Level Memphis Center
Tue 02:21:58 PM 32.4767 -89.8253 96° East 437 503 29,000  Level Memphis Center
Tue 02:22:58 PM 32.4614 -89.6853 97° East 437 503 29,000  Level Memphis Center
Tue 02:23:58 PM 32.4500 -89.5450 95° East 432 497 29,000  Level Memphis Center
Tue 02:24:58 PM 32.4386 -89.4047 95° East 432 497 29,000  Level Memphis Center
Tue 02:25:58 PM 32.4250 -89.2622 96° East 427 491 29,000  Level Memphis Center
Tue 02:26:58 PM 32.4111 -89.1219 97° East 427 491 29,000  Level Memphis Center
Tue 02:27:58 PM 32.3969 -88.9794 97° East 427 491 29,000  Level Memphis Center
Tue 02:28:58 PM 32.3828 -88.8394 97° East 427 491 29,000  Level Memphis Center
Tue 02:31:17 PM 32.4150 -88.5094 83° East 420 483 29,000  Level Atlanta Center
Tue 02:32:17 PM 32.4325 -88.3700 82° East 426 490 29,000  Level Atlanta Center
Tue 02:33:17 PM 32.4478 -88.2281 83° East 426 490 29,000  Level Atlanta Center
Tue 02:34:17 PM 32.4733 -88.0864 78° East 426 490 29,000  Level Atlanta Center
Tue 02:35:17 PM 32.5008 -87.9447 77° East 426 490 29,000  Level Atlanta Center
Tue 02:36:17 PM 32.5303 -87.8081 76° East 432 497 29,000  Level Atlanta Center
Tue 02:37:17 PM 32.5594 -87.6689 76° East 432 497 29,000  Level Atlanta Center
Tue 02:38:17 PM 32.5886 -87.5297 76° East 432 497 29,000  Level Atlanta Center
Tue 02:39:17 PM 32.6175 -87.3878 76° East 432 497 29,000  Level Atlanta Center
Tue 02:40:17 PM 32.6483 -87.2483 75° East 432 497 29,000  Level Atlanta Center
Tue 02:41:17 PM 32.6792 -87.1064 75° East 432 497 29,000  Level Atlanta Center
Tue 02:42:17 PM 32.7119 -86.9569 75° East 437 503 29,000  Level Atlanta Center
Tue 02:43:17 PM 32.7339 -86.8192 79° East 437 503 29,000  Level Atlanta Center
Tue 02:44:17 PM 32.7642 -86.6769 76° East 437 503 29,000  Level Atlanta Center
Tue 02:45:17 PM 32.7900 -86.5394 77° East 437 503 29,000  Level Atlanta Center
Tue 02:46:17 PM 32.8222 -86.3894 76° East 443 510 29,000  Level Atlanta Center
Tue 02:47:17 PM 32.8497 -86.2494 77° East 444 511 29,000  Level Atlanta Center
Tue 02:48:17 PM 32.8772 -86.1042 77° East 439 505 29,000 -400 Level Atlanta Center
Tue 02:49:17 PM 32.9108 -85.9614 74° East 439 505 28,200 -1,450 Descending Atlanta Center
Tue 02:50:17 PM 32.9464 -85.8311 72° East 451 519 26,100 -2,300 Descending Atlanta Center
Tue 02:51:17 PM 32.9919 -85.6958 68° East 451 519 23,600 -2,400 Descending Atlanta Center
Tue 02:52:17 PM 33.0272 -85.5650 72° East 432 497 21,300 -2,400 Descending Atlanta Center
Tue 02:53:17 PM 33.0683 -85.4394 69° East 398 458 18,800 -2,150 Descending Atlanta Center
Tue 02:54:17 PM 33.0989 -85.3233 73° East 366 421 17,000 -1,900 Descending Atlanta Center
Tue 02:55:17 PM 33.1333 -85.2147 69° East 353 406 15,000 -1,900 Descending Atlanta Center
Tue 02:56:17 PM 33.1614 -85.1058 73° East 343 395 13,200 -1,500 Descending Atlanta Center
Tue 02:57:17 PM 33.2019 -85.0094 63° Northeast 332 382 12,000 -950 Descending Atlanta Center
Tue 02:58:17 PM 33.2483 -84.9431 50° Northeast 306 352 11,300 -950 Descending Atlanta Center
Tue 02:59:17 PM 33.3072 -84.8692 46° Northeast 301 346 10,100 -1,600 Descending Atlanta Center
Tue 03:00:17 PM 33.3847 -84.8425 16° North 283 326 8,100 -2,017 Descending Atlanta Center
Tue 03:01:16 PM 33.4667 -84.8333 North 283 326 6,100 -1,831 Descending Atlanta TRACON
Tue 03:02:15 PM 33.5333 -84.8000 23° Northeast 265 305 4,500 -1,105 Descending Atlanta TRACON
Tue 03:03:10 PM 33.5667 -84.7500 51° Northeast 225 259 4,000 -263 Descending Atlanta TRACON
Tue 03:04:09 PM 33.6000 -84.6833 59° Northeast 222 255 4,000 -50 Level Atlanta TRACON
Tue 03:05:10 PM 33.6167 -84.6167 73° East 189 217 3,900 -417 Descending Atlanta TRACON
Tue 03:06:04 PM 33.6167 -84.5667 90° East 182 209 3,200 -895 Descending Atlanta TRACON
Tue 03:07:04 PM 33.6167 -84.5000 90° East 152 175 2,200 -950 Descending Atlanta TRACON
Tue 03:08:04 PM 33.6167 -84.4667 90° East 145 167 1,300 -900 Descending Atlanta TRACON
Tue 03:10:00 PM 33.6367 -84.4279 90° East  Level Estimated
Tue 03:17:00 PM 33.6367 -84.4279 301° West  Level Estimated

Login

Don't have an account? Register now (free) for customized features, flight alerts, and more!